createdAt,value
2022-10-09T00:00:35.813Z,17.73
2022-10-09T00:03:25.096Z,20.05
2022-10-09T00:06:07.965Z,18.02
2022-10-09T00:08:56.114Z,18.52
2022-10-09T00:11:40.817Z,17.90
2022-10-09T00:14:29.087Z,18.25
2022-10-09T00:17:11.191Z,18.00
2022-10-09T00:20:06.660Z,18.45
2022-10-09T00:22:55.836Z,16.83
2022-10-09T00:25:44.794Z,16.83
2022-10-09T00:28:29.322Z,15.35
2022-10-09T00:31:22.882Z,16.55
2022-10-09T00:34:04.975Z,15.73
2022-10-09T00:36:53.871Z,16.75
2022-10-09T00:39:43.079Z,15.98
2022-10-09T00:42:24.815Z,15.68
2022-10-09T00:45:07.747Z,16.88
2022-10-09T00:48:03.778Z,17.80
2022-10-09T00:50:59.576Z,18.50
2022-10-09T00:53:48.833Z,17.17
2022-10-09T00:56:38.234Z,16.98
2022-10-09T00:59:21.783Z,17.40
2022-10-09T01:02:10.773Z,18.95
2022-10-09T01:04:59.862Z,16.23
2022-10-09T01:08:00.167Z,18.83
2022-10-09T01:11:06.834Z,18.67
2022-10-09T01:13:59.462Z,16.83
2022-10-09T01:16:56.792Z,16.88
2022-10-09T01:20:28.653Z,17.20
2022-10-09T01:23:41.103Z,16.95
2022-10-09T01:26:32.073Z,17.60
2022-10-09T01:29:23.810Z,16.05
2022-10-09T01:32:14.789Z,16.77
2022-10-09T01:35:06.760Z,17.58
2022-10-09T01:37:51.793Z,17.42
2022-10-09T01:40:34.230Z,16.25
2022-10-09T01:43:22.879Z,18.23
2022-10-09T01:46:31.160Z,16.98
2022-10-09T01:49:45.883Z,17.73
2022-10-09T01:52:53.233Z,16.67
2022-10-09T01:55:54.792Z,16.13
2022-10-09T01:59:01.860Z,16.98
2022-10-09T02:01:52.203Z,16.60
2022-10-09T02:04:35.799Z,17.88
2022-10-09T02:07:26.091Z,19.10
2022-10-09T02:10:11.804Z,20.85
2022-10-09T02:13:08.791Z,17.95
2022-10-09T02:16:09.127Z,18.52
2022-10-09T02:19:09.841Z,18.15
2022-10-09T02:22:08.072Z,17.23
2022-10-09T02:24:52.223Z,17.50
2022-10-09T02:27:42.063Z,21.02
2022-10-09T02:30:25.804Z,20.95
2022-10-09T02:33:14.723Z,21.27
2022-10-09T02:36:03.848Z,20.23
2022-10-09T02:38:52.093Z,18.50
2022-10-09T02:41:35.863Z,18.48
2022-10-09T02:44:24.085Z,19.63
2022-10-09T02:47:06.868Z,20.63
2022-10-09T02:49:55.168Z,19.27
2022-10-09T02:52:37.806Z,17.85
2022-10-09T02:55:26.056Z,17.80
2022-10-09T02:58:08.837Z,18.63
2022-10-09T03:00:59.127Z,17.73
2022-10-09T03:03:41.783Z,17.30
2022-10-09T03:06:26.745Z,17.17
2022-10-09T03:09:15.787Z,16.67
2022-10-09T03:12:04.103Z,17.10
2022-10-09T03:14:46.790Z,16.95
2022-10-09T03:17:35.049Z,16.70
2022-10-09T03:20:24.789Z,17.02
2022-10-09T03:23:07.071Z,17.17
2022-10-09T03:26:11.797Z,16.63
2022-10-09T03:29:03.788Z,15.65
2022-10-09T03:31:53.641Z,16.05
2022-10-09T03:34:43.194Z,13.55
2022-10-09T03:37:31.067Z,14.00
2022-10-09T03:40:13.856Z,13.85
2022-10-09T03:43:02.110Z,13.98
2022-10-09T03:45:48.785Z,13.98
2022-10-09T03:48:37.795Z,13.88
2022-10-09T03:51:20.103Z,13.27
2022-10-09T03:54:08.783Z,13.48
2022-10-09T03:56:51.068Z,14.77
2022-10-09T03:59:39.975Z,12.57
2022-10-09T04:02:22.104Z,12.75
2022-10-09T04:05:10.859Z,12.20
2022-10-09T04:07:53.198Z,12.80
2022-10-09T04:10:41.849Z,12.18
2022-10-09T04:13:24.081Z,11.57
2022-10-09T04:16:12.966Z,11.07
2022-10-09T04:18:55.553Z,10.70
2022-10-09T04:24:32.977Z,9.60
2022-10-09T04:27:22.836Z,9.35
2022-10-09T04:30:12.699Z,10.07
2022-10-09T04:33:01.806Z,9.30
2022-10-09T04:35:52.697Z,10.30
2022-10-09T04:38:41.786Z,9.38
2022-10-09T04:41:23.955Z,8.38
2022-10-09T04:44:15.811Z,8.75
2022-10-09T04:46:57.956Z,6.78
2022-10-09T04:49:48.864Z,6.22
2022-10-09T04:52:41.063Z,6.57
2022-10-09T04:55:33.174Z,5.25
2022-10-09T04:58:22.340Z,5.10
2022-10-09T05:01:03.860Z,5.22
2022-10-09T05:03:53.108Z,7.63
2022-10-09T05:06:35.995Z,7.20
2022-10-09T05:09:25.019Z,7.25
2022-10-09T05:12:09.104Z,7.13
2022-10-09T05:14:57.828Z,6.93
2022-10-09T05:17:41.228Z,6.10
2022-10-09T05:20:36.832Z,6.47
2022-10-09T05:23:26.240Z,5.93
2022-10-09T05:26:11.779Z,6.00
2022-10-09T05:29:01.824Z,5.72
2022-10-09T05:31:49.146Z,6.90
2022-10-09T05:34:38.830Z,5.93
2022-10-09T05:37:22.856Z,5.93
2022-10-09T05:40:11.779Z,7.20
2022-10-09T05:42:57.191Z,7.05
2022-10-09T05:45:45.832Z,7.55
2022-10-09T05:48:29.070Z,7.68
2022-10-09T05:51:26.782Z,7.50
2022-10-09T05:54:09.091Z,7.35
2022-10-09T05:56:57.828Z,7.82
2022-10-09T05:59:40.058Z,8.60
2022-10-09T06:02:28.887Z,8.35
2022-10-09T06:05:11.220Z,7.97
2022-10-09T06:07:59.796Z,8.25
2022-10-09T06:10:42.131Z,9.02
2022-10-09T06:13:30.758Z,9.00
2022-10-09T06:16:20.829Z,10.02
2022-10-09T06:19:10.247Z,9.40
2022-10-09T06:21:59.780Z,9.57
2022-10-09T06:24:42.202Z,11.45
2022-10-09T06:27:30.803Z,12.35
2022-10-09T06:30:13.200Z,11.50
2022-10-09T06:33:01.779Z,12.00
2022-10-09T06:35:44.121Z,11.30
2022-10-09T06:38:35.830Z,12.48
2022-10-09T06:41:23.132Z,11.52
2022-10-09T06:44:16.864Z,12.65
2022-10-09T06:46:59.240Z,12.23
2022-10-09T06:49:47.778Z,12.18
2022-10-09T06:52:30.027Z,12.60
2022-10-09T06:55:18.779Z,14.57
2022-10-09T06:58:01.117Z,13.48
2022-10-09T07:00:49.831Z,15.68
2022-10-09T07:03:32.309Z,15.60
2022-10-09T07:06:26.797Z,15.00
2022-10-09T07:09:13.185Z,14.68
2022-10-09T07:12:01.781Z,15.55
2022-10-09T07:14:44.209Z,15.52
2022-10-09T07:17:34.761Z,14.90
2022-10-09T07:20:30.833Z,20.38
2022-10-09T07:23:19.223Z,21.55
2022-10-09T07:26:01.793Z,22.20
2022-10-09T07:28:45.036Z,20.83
2022-10-09T07:31:33.777Z,21.17
2022-10-09T07:34:23.058Z,21.80
2022-10-09T07:37:05.830Z,22.00
2022-10-09T07:39:54.068Z,20.88
2022-10-09T07:42:36.842Z,21.00
2022-10-09T07:45:32.166Z,22.20
2022-10-09T07:48:20.776Z,22.08
2022-10-09T07:51:39.880Z,21.42
2022-10-09T07:54:22.257Z,22.17
2022-10-09T07:57:10.769Z,22.70
2022-10-09T07:59:53.198Z,21.52
2022-10-09T08:02:42.219Z,21.30
2022-10-09T08:05:25.214Z,21.67
2022-10-09T08:08:14.790Z,22.42
2022-10-09T08:10:57.161Z,23.38
2022-10-09T08:13:46.889Z,22.23
2022-10-09T08:16:31.277Z,22.65
2022-10-09T08:19:19.868Z,23.88
2022-10-09T08:22:14.636Z,22.60
2022-10-09T08:25:03.786Z,23.27
2022-10-09T08:27:46.055Z,23.67
2022-10-09T08:30:34.880Z,23.27
2022-10-09T08:33:21.261Z,23.65
2022-10-09T08:36:15.834Z,24.45
2022-10-09T08:38:59.116Z,24.98
2022-10-09T08:44:50.039Z,22.63
2022-10-09T08:47:44.845Z,23.15
2022-10-09T08:50:30.079Z,22.30
2022-10-09T08:53:46.792Z,22.45
2022-10-09T08:56:31.123Z,24.20
2022-10-09T08:59:20.798Z,24.73
2022-10-09T09:02:23.116Z,24.10
2022-10-09T09:05:21.790Z,26.10
2022-10-09T09:08:18.781Z,27.17
2022-10-09T09:11:24.085Z,25.70
2022-10-09T09:14:25.167Z,25.10
2022-10-09T09:17:22.058Z,22.88
2022-10-09T09:20:09.769Z,22.98
2022-10-09T09:22:59.068Z,22.85
2022-10-09T09:25:47.783Z,23.10
2022-10-09T09:28:43.206Z,22.33
2022-10-09T09:31:36.893Z,19.92
2022-10-09T09:34:47.103Z,17.60
2022-10-09T09:37:28.845Z,19.23
2022-10-09T09:40:36.091Z,20.02
2022-10-09T09:43:26.880Z,18.70
2022-10-09T09:46:23.118Z,20.08
2022-10-09T09:49:09.364Z,19.83
2022-10-09T09:51:59.791Z,20.00
2022-10-09T09:54:43.537Z,20.95
2022-10-09T09:57:45.858Z,21.05
2022-10-09T10:00:31.162Z,21.45
2022-10-09T10:03:25.856Z,21.05
2022-10-09T10:06:09.061Z,21.73
2022-10-09T10:09:07.792Z,19.63
2022-10-09T10:12:04.540Z,22.15
2022-10-09T10:14:59.143Z,22.08
2022-10-09T10:17:45.072Z,24.50
2022-10-09T10:20:34.774Z,22.75
2022-10-09T10:23:50.146Z,24.08
2022-10-09T10:26:43.834Z,24.17
2022-10-09T10:29:46.063Z,25.33
2022-10-09T10:32:57.762Z,24.20
2022-10-09T10:35:47.070Z,24.33
2022-10-09T10:38:35.826Z,24.00
2022-10-09T10:41:32.259Z,23.90
2022-10-09T10:44:46.838Z,27.20
2022-10-09T10:47:37.094Z,26.55
2022-10-09T10:50:28.844Z,26.60
2022-10-09T10:53:32.075Z,27.88
2022-10-09T10:56:39.832Z,26.73
2022-10-09T10:59:49.054Z,26.92
2022-10-09T11:02:58.850Z,27.50
2022-10-09T11:06:03.096Z,26.25
2022-10-09T11:09:13.848Z,28.60
2022-10-09T11:12:12.587Z,27.27
2022-10-09T11:15:18.118Z,29.67
2022-10-09T11:18:25.168Z,26.47
2022-10-09T11:21:25.774Z,25.33
2022-10-09T11:24:29.251Z,25.55
2022-10-09T11:27:24.853Z,24.55
2022-10-09T11:30:23.272Z,25.60
2022-10-09T11:33:18.796Z,24.98
2022-10-09T11:36:19.730Z,24.48
2022-10-09T11:39:25.778Z,23.33
2022-10-09T11:42:11.371Z,24.23
2022-10-09T11:45:04.837Z,23.58
2022-10-09T11:48:13.179Z,24.10
2022-10-09T11:51:29.768Z,23.13
2022-10-09T11:54:18.686Z,23.63
2022-10-09T11:57:15.658Z,24.20
2022-10-09T12:00:08.193Z,24.58
2022-10-09T12:02:58.828Z,22.67
2022-10-09T12:05:48.386Z,23.48
2022-10-09T12:08:45.830Z,22.58
2022-10-09T12:11:35.098Z,21.65
2022-10-09T12:14:20.346Z,23.50
2022-10-09T12:17:10.045Z,22.65
2022-10-09T12:19:53.856Z,25.50
2022-10-09T12:23:14.298Z,25.90
2022-10-09T12:26:05.821Z,28.67
2022-10-09T12:29:03.085Z,29.35
2022-10-09T12:31:52.797Z,27.67
2022-10-09T12:34:45.103Z,27.55
2022-10-09T12:37:43.853Z,26.20
2022-10-09T12:40:34.131Z,26.23
2022-10-09T12:43:26.804Z,27.65
2022-10-09T12:46:10.276Z,30.90
2022-10-09T12:48:58.810Z,32.65
2022-10-09T12:51:42.211Z,34.22
2022-10-09T12:54:34.840Z,34.28
2022-10-09T12:57:24.085Z,34.25
2022-10-09T13:00:21.774Z,35.37
2022-10-09T13:03:04.256Z,33.72
2022-10-09T13:05:52.847Z,32.47
2022-10-09T13:08:39.127Z,31.33
2022-10-09T13:11:33.850Z,27.50
2022-10-09T13:14:41.158Z,27.73
2022-10-09T13:17:41.776Z,26.92
2022-10-09T13:20:24.116Z,26.98
2022-10-09T13:23:15.102Z,28.02
2022-10-09T13:25:59.968Z,26.45
2022-10-09T13:28:51.802Z,28.75
2022-10-09T13:31:34.889Z,29.70
2022-10-09T13:34:23.839Z,30.25
2022-10-09T13:37:06.111Z,30.90
2022-10-09T13:39:55.767Z,32.38
2022-10-09T13:42:43.105Z,32.33
2022-10-09T13:45:31.768Z,32.58
2022-10-09T13:48:14.048Z,30.92
2022-10-09T13:51:02.775Z,34.10
2022-10-09T13:53:45.028Z,32.72
2022-10-09T13:56:33.839Z,33.03
2022-10-09T13:59:16.302Z,32.53
2022-10-09T14:02:04.837Z,32.65
2022-10-09T14:04:47.127Z,32.15
2022-10-09T14:07:35.758Z,31.38
2022-10-09T14:10:24.770Z,31.17
2022-10-09T14:13:15.574Z,30.27
2022-10-09T14:15:59.761Z,30.60
2022-10-09T14:18:48.842Z,29.70
2022-10-09T14:21:38.103Z,29.25
2022-10-09T14:24:22.126Z,29.75
2022-10-09T14:27:10.093Z,27.33
2022-10-09T14:29:55.278Z,29.10
2022-10-09T14:32:38.934Z,29.73
2022-10-09T14:35:27.758Z,30.90
2022-10-09T14:38:17.031Z,29.67
2022-10-09T14:40:59.755Z,30.70
2022-10-09T14:43:55.822Z,28.33
2022-10-09T14:46:45.032Z,26.60
2022-10-09T14:49:27.835Z,29.10
2022-10-09T14:52:09.998Z,30.33
2022-10-09T14:54:58.781Z,30.00
2022-10-09T14:57:47.821Z,29.48
2022-10-09T15:00:30.203Z,30.65
2022-10-09T15:03:18.826Z,29.13
2022-10-09T15:06:13.350Z,27.05
2022-10-09T15:09:09.789Z,28.10
2022-10-09T15:11:59.802Z,26.52
2022-10-09T15:14:49.230Z,26.17
2022-10-09T15:17:30.762Z,26.60
2022-10-09T15:20:19.039Z,26.73
2022-10-09T15:23:07.811Z,28.13
2022-10-09T15:25:57.074Z,25.63
2022-10-09T15:28:46.820Z,26.35
2022-10-09T15:31:33.250Z,27.33
2022-10-09T15:34:26.121Z,25.33
2022-10-09T15:37:08.140Z,26.20
2022-10-09T15:39:56.817Z,25.85
2022-10-09T15:42:42.401Z,25.75
2022-10-09T15:45:31.771Z,26.38
2022-10-09T15:48:14.088Z,26.25
2022-10-09T15:51:02.843Z,25.88
2022-10-09T15:53:45.209Z,26.90
2022-10-09T15:56:38.785Z,25.50
2022-10-09T15:59:29.812Z,25.35
2022-10-09T16:02:20.192Z,24.80
2022-10-09T16:05:02.843Z,24.02
2022-10-09T16:07:51.104Z,24.13
2022-10-09T16:10:33.902Z,24.70
2022-10-09T16:13:16.347Z,24.83
2022-10-09T16:16:04.767Z,25.33
2022-10-09T16:18:47.496Z,26.63
2022-10-09T16:21:39.766Z,26.60
2022-10-09T16:24:28.825Z,25.95
2022-10-09T16:27:11.084Z,25.98
2022-10-09T16:29:59.809Z,25.27
2022-10-09T16:32:42.137Z,24.35
2022-10-09T16:35:31.082Z,25.80
2022-10-09T16:38:13.046Z,24.95
2022-10-09T16:41:02.514Z,26.25
2022-10-09T16:43:47.164Z,26.33
2022-10-09T16:46:39.890Z,25.70
2022-10-09T16:49:25.262Z,25.50
2022-10-09T16:52:13.848Z,25.35
2022-10-09T16:55:00.139Z,25.05
2022-10-09T16:57:49.996Z,24.38
2022-10-09T17:00:32.209Z,23.95
2022-10-09T17:03:20.875Z,25.63
2022-10-09T17:06:03.196Z,25.73
2022-10-09T17:08:51.839Z,24.73
2022-10-09T17:11:42.805Z,24.02
2022-10-09T17:14:31.830Z,24.35
2022-10-09T17:17:17.538Z,25.02
2022-10-09T17:20:06.771Z,24.83
2022-10-09T17:23:01.822Z,25.38
2022-10-09T17:25:45.190Z,24.02
2022-10-09T17:31:26.168Z,23.60
2022-10-09T17:34:11.833Z,23.45
2022-10-09T17:37:01.215Z,24.77
2022-10-09T17:39:47.433Z,23.33
2022-10-09T17:42:38.567Z,23.75
2022-10-09T17:45:21.881Z,24.45
2022-10-09T17:48:11.223Z,23.40
2022-10-09T17:51:04.771Z,25.58
2022-10-09T17:53:54.230Z,23.08
2022-10-09T17:56:37.764Z,24.45
2022-10-09T17:59:27.347Z,24.98
2022-10-09T18:02:09.845Z,24.70
2022-10-09T18:04:59.444Z,24.88
2022-10-09T18:07:42.792Z,23.42
2022-10-09T18:10:32.113Z,25.55
2022-10-09T18:13:15.753Z,24.50
2022-10-09T18:16:07.764Z,23.13
2022-10-09T18:18:51.131Z,25.13
2022-10-09T18:21:39.762Z,24.35
2022-10-09T18:24:23.175Z,26.77
2022-10-09T18:27:11.826Z,24.88
2022-10-09T18:29:54.146Z,25.38
2022-10-09T18:32:42.834Z,24.58
2022-10-09T18:35:26.568Z,24.90
2022-10-09T18:38:17.826Z,26.30
2022-10-09T18:41:00.600Z,24.50
2022-10-09T18:43:50.107Z,24.52
2022-10-09T18:46:35.131Z,24.38
2022-10-09T18:49:26.769Z,27.40
2022-10-09T18:52:11.155Z,24.83
2022-10-09T18:55:01.810Z,26.15
2022-10-09T18:57:47.102Z,26.98
2022-10-09T19:00:35.837Z,25.77
2022-10-09T19:03:24.762Z,23.63
2022-10-09T19:06:13.743Z,23.27
2022-10-09T19:09:05.824Z,24.40
2022-10-09T19:11:48.184Z,25.88
2022-10-09T19:14:36.852Z,26.10
2022-10-09T19:17:26.180Z,25.45
2022-10-09T19:20:08.718Z,26.05
2022-10-09T19:22:51.064Z,26.20
2022-10-09T19:25:39.822Z,27.52
2022-10-09T19:28:24.113Z,26.02
2022-10-09T19:31:14.820Z,26.45
2022-10-09T19:34:03.066Z,27.52
2022-10-09T19:36:45.748Z,27.77
2022-10-09T19:39:28.949Z,29.60
2022-10-09T19:42:17.817Z,28.23
2022-10-09T19:45:06.057Z,30.13
2022-10-09T19:47:53.515Z,28.60
2022-10-09T19:50:43.112Z,28.80
2022-10-09T19:53:25.123Z,30.73
2022-10-09T19:56:21.728Z,30.85
2022-10-09T19:59:05.199Z,30.25
2022-10-09T20:01:57.394Z,27.67
2022-10-09T20:04:39.739Z,25.63
2022-10-09T20:07:22.052Z,27.77
2022-10-09T20:10:10.735Z,27.42
2022-10-09T20:12:59.819Z,27.10
2022-10-09T20:15:50.041Z,27.10
2022-10-09T20:18:33.752Z,27.80
2022-10-09T20:21:19.211Z,28.73
2022-10-09T20:24:10.815Z,26.58
2022-10-09T20:26:59.062Z,26.55
2022-10-09T20:29:41.840Z,26.48
2022-10-09T20:32:31.435Z,25.70
2022-10-09T20:35:14.826Z,23.55
2022-10-09T20:38:03.037Z,23.98
2022-10-09T20:40:44.767Z,22.02
2022-10-09T20:43:26.927Z,21.38
2022-10-09T20:46:23.758Z,19.92
2022-10-09T20:49:12.719Z,18.65
2022-10-09T20:52:01.738Z,18.23
2022-10-09T20:54:43.948Z,17.65
2022-10-09T20:57:32.823Z,17.48
2022-10-09T21:00:22.020Z,15.15
2022-10-09T21:03:05.478Z,14.65
2022-10-09T21:05:57.051Z,14.02
2022-10-09T21:08:39.730Z,15.52
2022-10-09T21:11:22.280Z,15.23
2022-10-09T21:14:10.730Z,14.13
2022-10-09T21:16:59.008Z,14.40
2022-10-09T21:19:40.804Z,14.23
2022-10-09T21:22:30.069Z,14.02
2022-10-09T21:25:12.749Z,13.10
2022-10-09T21:28:01.156Z,12.90
2022-10-09T21:30:55.769Z,14.32
2022-10-09T21:33:38.413Z,14.38
2022-10-09T21:39:54.533Z,13.85
2022-10-09T21:42:39.149Z,13.63
2022-10-09T21:45:27.044Z,12.38
2022-10-09T21:48:08.713Z,13.48
2022-10-09T21:50:51.262Z,13.70
2022-10-09T21:53:40.051Z,13.60
2022-10-09T21:56:29.075Z,13.02
2022-10-09T21:59:11.802Z,13.05
2022-10-09T22:02:00.085Z,12.73
2022-10-09T22:04:59.736Z,13.07
2022-10-09T22:07:48.642Z,12.75
2022-10-09T22:10:37.668Z,11.93
2022-10-09T22:13:27.732Z,11.93
2022-10-09T22:16:18.642Z,12.40
2022-10-09T22:19:08.796Z,12.55
2022-10-09T22:21:57.991Z,12.70
2022-10-09T22:24:40.720Z,13.35
2022-10-09T22:27:29.731Z,13.77
2022-10-09T22:30:19.750Z,13.10
2022-10-09T22:33:14.579Z,12.90
2022-10-09T22:36:23.706Z,12.18
2022-10-09T22:39:08.123Z,13.07
2022-10-09T22:41:56.724Z,13.57
2022-10-09T22:44:39.027Z,13.27
2022-10-09T22:47:27.754Z,13.05
2022-10-09T22:50:10.066Z,12.38
2022-10-09T22:52:58.797Z,12.05
2022-10-09T22:55:40.990Z,11.60
2022-10-09T22:58:30.159Z,10.27
2022-10-09T23:01:26.101Z,10.68
2022-10-09T23:04:18.738Z,9.98
2022-10-09T23:07:04.052Z,10.00
2022-10-09T23:09:52.799Z,9.32
2022-10-09T23:12:35.006Z,10.30
2022-10-09T23:15:23.768Z,9.40
2022-10-09T23:18:06.018Z,9.82
2022-10-09T23:20:54.782Z,10.27
2022-10-09T23:23:37.012Z,8.23
2022-10-09T23:26:28.704Z,10.27
2022-10-09T23:29:16.510Z,9.35
2022-10-09T23:32:12.726Z,9.70
2022-10-09T23:35:01.762Z,10.48
2022-10-09T23:37:44.031Z,9.63
2022-10-09T23:40:32.761Z,10.35
2022-10-09T23:43:15.038Z,9.90
2022-10-09T23:46:05.725Z,9.55
2022-10-09T23:48:54.645Z,9.45
2022-10-09T23:51:43.769Z,9.75
2022-10-09T23:54:27.004Z,9.77
2022-10-09T23:57:15.725Z,9.07
2022-10-09T23:59:58.033Z,9.65
